Time;durP1;ratioP1;P1;durP2;ratioP2;P2;SDS_P1;SDS_P2;PMS_P1;PMS_P2;Temp;Humidity;BMP_temperature;BMP_pressure;BME280_temperature;BME280_humidity;BME280_pressure;Samples;Min_cycle;Max_cycle;Signal;HPM_P1;HPM_P2
2022/01/22 00:00:01;;;;;;;14.98;2.20;;;;;;;;;;4940938;28;106295;-74
2022/01/22 00:02:37;;;;;;;13.43;2.08;;;;;;;;;;4948227;28;106838;-74
2022/01/22 00:05:04;;;;;;;10.85;1.95;;;;;;;;;;4953997;28;107461;-73
2022/01/22 00:07:31;;;;;;;22.05;2.80;;;;;;;;;;4956760;28;106577;-72
2022/01/22 00:10:03;;;;;;;12.82;1.95;;;;;;;;;;4950282;28;106743;-72
2022/01/22 00:15:06;;;;;;;18.95;2.45;;;;;;;;;;4949942;28;108830;-72
2022/01/22 00:17:33;;;;;;;11.90;1.90;;;;;;;;;;4953046;28;107969;-72
2022/01/22 00:19:59;;;;;;;16.77;2.53;;;;;;;;;;4949663;28;107488;-73
2022/01/22 00:22:29;;;;;;;18.50;2.35;;;;;;;;;;4950596;28;107016;-73
2022/01/22 00:24:59;;;;;;;10.85;2.72;;;;;;;;;;4950056;28;107089;-74
2022/01/22 00:27:26;;;;;;;13.43;1.85;;;;;;;;;;4950811;28;106031;-74
2022/01/22 00:29:53;;;;;;;12.75;1.88;;;;;;;;;;4947291;28;109102;-73
2022/01/22 00:32:20;;;;;;;10.95;2.10;;;;;;;;;;4940635;28;108512;-74
2022/01/22 00:34:46;;;;;;;20.77;2.33;;;;;;;;;;4948885;28;107573;-73
2022/01/22 00:37:12;;;;;;;18.13;2.15;;;;;;;;;;4950262;28;106946;-73
2022/01/22 00:39:39;;;;;;;15.48;2.88;;;;;;;;;;4948650;28;107833;-74
2022/01/22 00:42:10;;;;;;;20.38;3.30;;;;;;;;;;4932968;28;107974;-72
2022/01/22 00:44:37;;;;;;;14.43;2.40;;;;;;;;;;4938293;28;107062;-73
2022/01/22 00:47:03;;;;;;;16.27;2.90;;;;;;;;;;4948065;28;107583;-73
2022/01/22 00:49:31;;;;;;;18.65;3.53;;;;;;;;;;4928833;28;107445;-73
2022/01/22 00:51:58;;;;;;;19.30;3.08;;;;;;;;;;4949514;28;106752;-73
2022/01/22 00:54:26;;;;;;;18.40;2.60;;;;;;;;;;4947464;28;106744;-74
2022/01/22 00:56:52;;;;;;;24.65;3.05;;;;;;;;;;4952819;28;106915;-73
2022/01/22 00:59:19;;;;;;;26.63;4.07;;;;;;;;;;4926210;28;107050;-74
2022/01/22 01:01:45;;;;;;;19.17;3.13;;;;;;;;;;4930002;28;108184;-74
2022/01/22 01:04:12;;;;;;;17.45;2.80;;;;;;;;;;4943265;28;109356;-73
2022/01/22 01:06:39;;;;;;;24.98;2.75;;;;;;;;;;4949375;28;105684;-73
2022/01/22 01:09:07;;;;;;;11.57;2.33;;;;;;;;;;4939160;28;107722;-73
2022/01/22 01:11:38;;;;;;;20.10;3.03;;;;;;;;;;4947144;28;109694;-73
2022/01/22 01:14:08;;;;;;;16.98;2.53;;;;;;;;;;4946934;28;106108;-73
2022/01/22 01:35:28;;;;;;;17.77;3.22;;;;;;;;;;4948072;28;106437;-73
2022/01/22 01:37:56;;;;;;;18.60;2.72;;;;;;;;;;4946339;28;109605;-73
2022/01/22 01:40:25;;;;;;;15.52;3.25;;;;;;;;;;4949462;28;107495;-74
2022/01/22 01:45:18;;;;;;;20.05;3.10;;;;;;;;;;4946828;28;108803;-73
2022/01/22 01:47:53;;;;;;;24.10;3.53;;;;;;;;;;4936840;28;107765;-72
2022/01/22 01:50:19;;;;;;;21.58;3.97;;;;;;;;;;4943454;28;109228;-74
2022/01/22 01:52:48;;;;;;;18.40;3.95;;;;;;;;;;4930141;28;108724;-72
2022/01/22 01:55:32;;;;;;;24.77;4.25;;;;;;;;;;4930268;28;105986;-72
2022/01/22 01:58:04;;;;;;;26.67;4.70;;;;;;;;;;4921829;28;107083;-72
2022/01/22 02:00:36;;;;;;;21.00;3.88;;;;;;;;;;4946987;28;109506;-73
2022/01/22 02:03:03;;;;;;;13.98;3.67;;;;;;;;;;4948826;28;107464;-72
2022/01/22 02:05:36;;;;;;;22.80;3.72;;;;;;;;;;4945164;28;108848;-72
2022/01/22 02:08:05;;;;;;;27.15;4.60;;;;;;;;;;4947639;28;106348;-73
2022/01/22 02:10:51;;;;;;;25.05;4.15;;;;;;;;;;4928162;28;108420;-73
2022/01/22 02:14:01;;;;;;;18.60;3.60;;;;;;;;;;4943051;28;108679;-73
2022/01/22 02:25:10;;;;;;;15.77;4.35;;;;;;;;;;4946808;28;106582;-73
2022/01/22 02:27:36;;;;;;;19.90;5.10;;;;;;;;;;4950031;28;108381;-73
2022/01/22 02:30:06;;;;;;;19.25;4.53;;;;;;;;;;4946947;28;105702;-73
2022/01/22 02:33:29;;;;;;;23.95;4.80;;;;;;;;;;4923728;28;107031;-73
2022/01/22 02:36:01;;;;;;;18.85;4.22;;;;;;;;;;4946069;28;108571;-73
2022/01/22 02:38:39;;;;;;;20.90;3.97;;;;;;;;;;4945971;28;106680;-73
2022/01/22 02:41:12;;;;;;;27.77;5.07;;;;;;;;;;4948270;28;107257;-73
2022/01/22 02:43:39;;;;;;;22.15;4.88;;;;;;;;;;4928546;28;108479;-72
2022/01/22 02:46:06;;;;;;;20.90;4.63;;;;;;;;;;4944361;28;106233;-72
2022/01/22 02:48:33;;;;;;;27.02;5.13;;;;;;;;;;4929067;28;108434;-73
2022/01/22 02:50:59;;;;;;;28.27;4.88;;;;;;;;;;4928305;28;107601;-74
2022/01/22 02:53:26;;;;;;;23.58;4.30;;;;;;;;;;4946812;28;106690;-74
2022/01/22 02:55:54;;;;;;;19.52;4.75;;;;;;;;;;4929933;28;108710;-74
2022/01/22 02:58:20;;;;;;;23.63;4.78;;;;;;;;;;4929620;28;106347;-73
2022/01/22 03:00:47;;;;;;;23.00;4.22;;;;;;;;;;4944681;28;108331;-74
2022/01/22 03:03:18;;;;;;;18.08;4.70;;;;;;;;;;4934791;28;108939;-73
2022/01/22 03:05:44;;;;;;;25.10;4.35;;;;;;;;;;4928930;28;106298;-74
2022/01/22 03:08:12;;;;;;;29.42;5.22;;;;;;;;;;4943870;28;107916;-73
2022/01/22 03:10:43;;;;;;;19.88;4.40;;;;;;;;;;4947181;28;106164;-74
2022/01/22 03:13:48;;;;;;;18.33;3.97;;;;;;;;;;4948904;28;106870;-74
2022/01/22 03:16:53;;;;;;;21.33;4.32;;;;;;;;;;4947197;28;106470;-74
2022/01/22 03:29:20;;;;;;;21.83;3.75;;;;;;;;;;4932718;28;109227;-73
2022/01/22 03:31:47;;;;;;;;;;;;;;;;;;4949734;28;109210;-73
2022/01/22 03:34:14;;;;;;;22.50;3.70;;;;;;;;;;4946608;28;106945;-73
2022/01/22 03:36:41;;;;;;;16.85;3.47;;;;;;;;;;4952697;28;108249;-73
2022/01/22 03:39:10;;;;;;;25.58;3.70;;;;;;;;;;4934344;28;106694;-73
2022/01/22 03:41:38;;;;;;;15.27;3.58;;;;;;;;;;4933374;28;109502;-72
2022/01/22 03:44:06;;;;;;;14.00;3.05;;;;;;;;;;4950894;28;108049;-73
2022/01/22 03:46:33;;;;;;;13.90;3.13;;;;;;;;;;4932974;28;106881;-73
2022/01/22 03:48:59;;;;;;;14.63;3.17;;;;;;;;;;4931843;28;107909;-73
2022/01/22 03:51:26;;;;;;;24.70;3.45;;;;;;;;;;4948598;28;108687;-73
2022/01/22 03:53:52;;;;;;;22.35;3.70;;;;;;;;;;4932844;28;106536;-73
2022/01/22 03:56:20;;;;;;;14.75;3.33;;;;;;;;;;4935169;28;108376;-73
2022/01/22 03:59:16;;;;;;;13.02;2.97;;;;;;;;;;4945151;28;106320;-73
2022/01/22 04:04:32;;;;;;;21.10;3.47;;;;;;;;;;4935988;28;108518;-73
2022/01/22 04:09:30;;;;;;;15.18;3.50;;;;;;;;;;4949721;28;106451;-73
2022/01/22 04:11:59;;;;;;;21.05;3.75;;;;;;;;;;4950481;28;107370;-73
2022/01/22 04:14:30;;;;;;;12.40;3.20;;;;;;;;;;4947392;28;106299;-73
2022/01/22 04:17:10;;;;;;;20.35;3.42;;;;;;;;;;4950503;28;106676;-73
2022/01/22 04:25:07;;;;;;;17.17;3.85;;;;;;;;;;4949006;28;106141;-73
2022/01/22 04:27:36;;;;;;;20.27;3.47;;;;;;;;;;4947196;28;106433;-72
2022/01/22 04:30:03;;;;;;;20.05;4.18;;;;;;;;;;4948635;28;108532;-73
2022/01/22 04:32:30;;;;;;;21.30;3.55;;;;;;;;;;4948326;28;106759;-73
2022/01/22 04:34:56;;;;;;;16.52;3.67;;;;;;;;;;4931519;28;106453;-73
2022/01/22 04:37:24;;;;;;;16.27;3.80;;;;;;;;;;4948504;28;107077;-74
2022/01/22 04:39:51;;;;;;;22.50;4.15;;;;;;;;;;4932984;28;107403;-74
2022/01/22 04:42:18;;;;;;;20.27;3.67;;;;;;;;;;4952745;28;106734;-74
2022/01/22 04:45:00;;;;;;;34.92;4.15;;;;;;;;;;4931487;28;108975;-74
2022/01/22 04:54:58;;;;;;;16.38;3.90;;;;;;;;;;4946851;28;110392;-73
2022/01/22 04:55:31;;;;;;;21.88;4.00;;;;;;;;;;4929038;28;107864;-73
2022/01/22 04:57:58;;;;;;;23.00;4.70;;;;;;;;;;4948650;28;108034;-73
2022/01/22 05:00:25;;;;;;;31.45;5.03;;;;;;;;;;4946799;28;107535;-72
2022/01/22 05:03:15;;;;;;;18.02;4.75;;;;;;;;;;4942413;28;106193;-73
2022/01/22 05:05:42;;;;;;;16.23;4.30;;;;;;;;;;4951833;28;106196;-73
2022/01/22 05:08:29;;;;;;;23.50;4.03;;;;;;;;;;4948290;28;107051;-73
2022/01/22 05:11:08;;;;;;;19.05;4.35;;;;;;;;;;4936730;28;108753;-73
2022/01/22 05:13:35;;;;;;;15.10;4.15;;;;;;;;;;4947070;28;109101;-74
2022/01/22 05:16:05;;;;;;;23.80;4.82;;;;;;;;;;4931097;28;106518;-73
2022/01/22 05:18:38;;;;;;;17.90;4.35;;;;;;;;;;4946474;28;107752;-72
2022/01/22 05:21:10;;;;;;;17.80;4.40;;;;;;;;;;4947972;28;108880;-73
2022/01/22 05:23:38;;;;;;;13.70;4.47;;;;;;;;;;4930964;28;106312;-73
2022/01/22 05:26:10;;;;;;;19.75;4.50;;;;;;;;;;4947955;28;108725;-73
2022/01/22 05:29:13;;;;;;;22.35;4.57;;;;;;;;;;4941798;28;109130;-72
2022/01/22 05:32:27;;;;;;;27.02;4.78;;;;;;;;;;4925903;28;106516;-73
2022/01/22 05:37:58;;;;;;;27.50;4.47;;;;;;;;;;4931184;28;106431;-73
2022/01/22 05:40:25;;;;;;;25.40;4.15;;;;;;;;;;4949014;28;106279;-73
2022/01/22 05:42:52;;;;;;;21.05;4.68;;;;;;;;;;4945282;28;108986;-72
2022/01/22 05:45:19;;;;;;;24.38;4.40;;;;;;;;;;4947004;28;105867;-73
2022/01/22 05:47:45;;;;;;;22.23;5.80;;;;;;;;;;4945825;28;107266;-73
2022/01/22 05:50:25;;;;;;;21.75;4.80;;;;;;;;;;4930610;28;107321;-73
2022/01/22 05:52:55;;;;;;;21.38;4.78;;;;;;;;;;4934454;28;107019;-72
2022/01/22 05:55:40;;;;;;;30.13;5.07;;;;;;;;;;4930132;28;108598;-73
2022/01/22 06:00:56;;;;;;;17.58;4.57;;;;;;;;;;4931334;28;108249;-73
2022/01/22 06:03:41;;;;;;;23.48;4.90;;;;;;;;;;4946242;28;107990;-73
2022/01/22 06:06:07;;;;;;;19.70;4.60;;;;;;;;;;4947988;28;108288;-73
2022/01/22 06:08:40;;;;;;;25.73;4.72;;;;;;;;;;4944039;28;108016;-73
2022/01/22 06:11:11;;;;;;;22.38;4.43;;;;;;;;;;4945642;28;109924;-74
2022/01/22 06:13:46;;;;;;;16.42;4.38;;;;;;;;;;4937731;28;106712;-74
2022/01/22 06:16:25;;;;;;;20.52;4.40;;;;;;;;;;4945948;28;109174;-74
2022/01/22 06:19:11;;;;;;;24.83;4.40;;;;;;;;;;4947014;28;106519;-74
2022/01/22 06:21:37;;;;;;;23.15;4.25;;;;;;;;;;4946040;28;108173;-74
2022/01/22 06:24:04;;;;;;;27.10;3.85;;;;;;;;;;4929990;28;108368;-74
2022/01/22 06:26:31;;;;;;;25.55;4.97;;;;;;;;;;4946070;28;105832;-74
2022/01/22 06:28:59;;;;;;;18.67;4.28;;;;;;;;;;4943963;28;108123;-74
2022/01/22 06:31:26;;;;;;;20.43;3.73;;;;;;;;;;4947339;28;107238;-74
2022/01/22 06:33:55;;;;;;;18.93;3.73;;;;;;;;;;4945176;28;106676;-73
2022/01/22 06:36:22;;;;;;;19.95;4.15;;;;;;;;;;4949160;28;107678;-74
2022/01/22 06:38:55;;;;;;;12.73;3.72;;;;;;;;;;4944499;28;106340;-73
2022/01/22 06:41:44;;;;;;;14.93;3.20;;;;;;;;;;4947694;28;106270;-76
2022/01/22 06:44:37;;;;;;;15.00;4.40;;;;;;;;;;4923424;28;106289;-74
2022/01/22 06:47:43;;;;;;;27.27;3.92;;;;;;;;;;4931652;28;106310;-74
2022/01/22 06:50:11;;;;;;;18.23;3.23;;;;;;;;;;4931292;28;108190;-74
2022/01/22 06:52:58;;;;;;;28.98;4.07;;;;;;;;;;4929817;28;109809;-74
2022/01/22 06:55:47;;;;;;;20.02;3.85;;;;;;;;;;4937030;28;106968;-75
2022/01/22 06:58:16;;;;;;;18.45;3.80;;;;;;;;;;4947053;28;107149;-75
2022/01/22 07:00:49;;;;;;;17.52;3.65;;;;;;;;;;4949362;28;108880;-73
2022/01/22 07:03:30;;;;;;;19.40;3.72;;;;;;;;;;4913938;28;108067;-73
2022/01/22 07:06:23;;;;;;;22.20;3.50;;;;;;;;;;4921397;28;106569;-74
2022/01/22 07:08:50;;;;;;;14.73;3.22;;;;;;;;;;4946906;28;106427;-73
2022/01/22 07:11:18;;;;;;;11.13;3.45;;;;;;;;;;4943257;28;108473;-76
2022/01/22 07:13:47;;;;;;;17.17;4.10;;;;;;;;;;4931837;28;107510;-75
2022/01/22 07:16:14;;;;;;;17.63;3.40;;;;;;;;;;4943105;28;106205;-76
2022/01/22 07:18:41;;;;;;;15.27;3.20;;;;;;;;;;4942637;28;108091;-73
2022/01/22 07:21:18;;;;;;;14.95;3.80;;;;;;;;;;4941334;28;109438;-74
2022/01/22 07:26:24;;;;;;;15.55;2.95;;;;;;;;;;4928939;28;110594;-74
2022/01/22 07:28:56;;;;;;;11.18;2.70;;;;;;;;;;4943001;28;106036;-73
2022/01/22 07:31:24;;;;;;;16.60;2.53;;;;;;;;;;4941345;28;108538;-73
2022/01/22 07:33:51;;;;;;;15.07;2.60;;;;;;;;;;4925917;28;108569;-74
2022/01/22 07:36:18;;;;;;;16.73;2.67;;;;;;;;;;4941751;28;106777;-73
2022/01/22 07:38:46;;;;;;;15.55;2.58;;;;;;;;;;4914217;28;108667;-73
2022/01/22 07:41:12;;;;;;;10.90;2.30;;;;;;;;;;4935523;28;109213;-73
2022/01/22 07:43:47;;;;;;;14.02;3.55;;;;;;;;;;4943281;28;105960;-74
2022/01/22 07:46:36;;;;;;;9.77;2.30;;;;;;;;;;4939532;28;107125;-73
2022/01/22 07:49:19;;;;;;;19.48;3.13;;;;;;;;;;4925908;28;106896;-74
2022/01/22 07:51:47;;;;;;;9.80;2.70;;;;;;;;;;4941882;28;107852;-74
2022/01/22 07:54:14;;;;;;;11.07;2.38;;;;;;;;;;4942794;28;109482;-73
2022/01/22 07:56:42;;;;;;;17.20;2.60;;;;;;;;;;4942599;28;106107;-73
2022/01/22 07:59:10;;;;;;;9.15;2.15;;;;;;;;;;4926629;28;108060;-74
2022/01/22 08:01:42;;;;;;;11.00;1.88;;;;;;;;;;4941144;28;109452;-73
2022/01/22 08:04:18;;;;;;;11.25;1.98;;;;;;;;;;4925582;28;107649;-74
2022/01/22 08:07:03;;;;;;;11.23;2.25;;;;;;;;;;4928889;28;106488;-74
2022/01/22 08:09:50;;;;;;;10.70;1.63;;;;;;;;;;4934395;28;106888;-74
2022/01/22 08:12:26;;;;;;;8.13;1.40;;;;;;;;;;4946076;28;108521;-74
2022/01/22 08:15:07;;;;;;;15.25;1.80;;;;;;;;;;4944641;28;110113;-73
2022/01/22 08:17:34;;;;;;;13.27;1.63;;;;;;;;;;4938081;28;106960;-74
2022/01/22 08:20:01;;;;;;;13.48;2.28;;;;;;;;;;4945544;28;108951;-74
2022/01/22 08:22:46;;;;;;;10.68;1.90;;;;;;;;;;4930827;28;105883;-74
2022/01/22 08:25:25;;;;;;;12.55;2.13;;;;;;;;;;4930578;28;105941;-73
2022/01/22 08:30:32;;;;;;;7.97;1.88;;;;;;;;;;4945963;28;108760;-74
2022/01/22 08:33:32;;;;;;;7.45;1.70;;;;;;;;;;4941734;28;108137;-74
2022/01/22 08:35:55;;;;;;;6.00;1.58;;;;;;;;;;4939298;28;108735;-71
2022/01/22 08:38:27;;;;;;;9.35;2.00;;;;;;;;;;4925040;28;106722;-72
2022/01/22 08:40:55;;;;;;;10.60;1.95;;;;;;;;;;4945223;28;108471;-73
2022/01/22 08:43:23;;;;;;;7.32;1.50;;;;;;;;;;4928224;28;107672;-74
2022/01/22 08:45:50;;;;;;;9.38;1.77;;;;;;;;;;4927025;28;107733;-73
2022/01/22 08:48:17;;;;;;;10.32;1.63;;;;;;;;;;4938866;28;107949;-73
2022/01/22 08:50:49;;;;;;;12.80;1.90;;;;;;;;;;4944381;28;108632;-70
2022/01/22 08:53:35;;;;;;;11.02;1.95;;;;;;;;;;4933527;28;106672;-80
2022/01/22 08:56:03;;;;;;;14.90;2.33;;;;;;;;;;4928591;28;107953;-74
2022/01/22 08:58:30;;;;;;;9.63;2.20;;;;;;;;;;4935658;28;106264;-73
2022/01/22 09:01:06;;;;;;;12.25;1.85;;;;;;;;;;4929522;28;108169;-72
2022/01/22 09:03:36;;;;;;;15.02;2.35;;;;;;;;;;4943859;28;108884;-73
2022/01/22 09:06:27;;;;;;;8.10;1.48;;;;;;;;;;4915148;28;107535;-74
2022/01/22 09:09:12;;;;;;;9.13;2.10;;;;;;;;;;4944092;28;109079;-73
2022/01/22 09:11:49;;;;;;;9.82;2.25;;;;;;;;;;4944518;28;108757;-70
2022/01/22 09:14:35;;;;;;;16.83;2.25;;;;;;;;;;4928576;28;107515;-72
2022/01/22 09:17:02;;;;;;;18.33;3.03;;;;;;;;;;4946016;28;108938;-71
2022/01/22 09:19:34;;;;;;;13.73;2.80;;;;;;;;;;4922989;28;106764;-72
2022/01/22 09:22:06;;;;;;;20.23;2.70;;;;;;;;;;4944654;28;108762;-71
2022/01/22 09:24:34;;;;;;;12.85;2.80;;;;;;;;;;4928505;28;109339;-71
2022/01/22 09:27:04;;;;;;;9.93;2.70;;;;;;;;;;4944007;28;106101;-71
2022/01/22 09:29:32;;;;;;;8.95;2.60;;;;;;;;;;4920769;28;109252;-72
2022/01/22 09:31:59;;;;;;;12.60;2.75;;;;;;;;;;4913035;28;109885;-71
2022/01/22 09:34:52;;;;;;;13.95;2.50;;;;;;;;;;4916510;28;106534;-71
2022/01/22 09:37:41;;;;;;;12.55;2.97;;;;;;;;;;4926604;28;106538;-71
2022/01/22 09:40:25;;;;;;;12.77;2.60;;;;;;;;;;4946187;28;108687;-73
2022/01/22 09:43:20;;;;;;;12.88;3.35;;;;;;;;;;4923760;28;107391;-71
2022/01/22 09:46:07;;;;;;;13.75;3.55;;;;;;;;;;4944445;28;108784;-71
2022/01/22 09:49:00;;;;;;;23.88;4.18;;;;;;;;;;4925842;28;106299;-71
2022/01/22 09:51:45;;;;;;;10.15;4.32;;;;;;;;;;4919351;28;106037;-72
2022/01/22 09:54:38;;;;;;;18.48;4.38;;;;;;;;;;4927895;28;108501;-71
2022/01/22 09:57:25;;;;;;;20.55;5.60;;;;;;;;;;4942253;28;107878;-72
2022/01/22 09:59:54;;;;;;;14.98;5.45;;;;;;;;;;4929591;28;106298;-72
2022/01/22 10:02:40;;;;;;;15.60;6.00;;;;;;;;;;4927656;28;106592;-72
2022/01/22 10:05:29;;;;;;;23.63;7.25;;;;;;;;;;4922574;28;105782;-72
2022/01/22 10:08:17;;;;;;;20.08;7.25;;;;;;;;;;4929306;28;106804;-76
2022/01/22 10:11:02;;;;;;;20.23;7.20;;;;;;;;;;4937047;28;105859;-74
2022/01/22 10:13:40;;;;;;;19.27;6.93;;;;;;;;;;4930595;28;107293;-70
2022/01/22 10:16:26;;;;;;;21.40;8.10;;;;;;;;;;4940915;28;107866;-75
2022/01/22 10:19:08;;;;;;;29.88;7.78;;;;;;;;;;4943876;28;106120;-74
2022/01/22 10:21:35;;;;;;;24.35;7.68;;;;;;;;;;4945706;28;106223;-73
2022/01/22 10:24:20;;;;;;;19.05;7.55;;;;;;;;;;4945926;28;106990;-72
2022/01/22 10:26:47;;;;;;;24.50;7.68;;;;;;;;;;4948301;28;106428;-73
2022/01/22 10:29:19;;;;;;;23.92;8.00;;;;;;;;;;4945648;28;106133;-73
2022/01/22 10:31:46;;;;;;;21.98;8.27;;;;;;;;;;4945009;28;106421;-73
2022/01/22 10:34:48;;;;;;;19.73;8.35;;;;;;;;;;4890350;28;106924;-73
2022/01/22 10:37:54;;;;;;;25.08;8.38;;;;;;;;;;4854250;28;106640;-74
2022/01/22 10:40:23;;;;;;;19.55;6.22;;;;;;;;;;4931339;28;106738;-74
2022/01/22 10:42:50;;;;;;;20.88;6.03;;;;;;;;;;4948292;28;106442;-72
2022/01/22 10:45:26;;;;;;;20.10;5.97;;;;;;;;;;4946189;28;109160;-72
2022/01/22 10:48:11;;;;;;;15.75;5.63;;;;;;;;;;4945618;28;106774;-72
2022/01/22 10:50:38;;;;;;;15.95;5.75;;;;;;;;;;4946516;28;107572;-73
2022/01/22 10:53:04;;;;;;;16.65;5.95;;;;;;;;;;4945477;28;108116;-73
2022/01/22 10:55:31;;;;;;;16.95;5.78;;;;;;;;;;4944339;28;107061;-75
2022/01/22 10:58:04;;;;;;;17.30;5.47;;;;;;;;;;4949739;28;106339;-77
2022/01/22 11:00:31;;;;;;;18.08;5.63;;;;;;;;;;4946159;28;105939;-81
2022/01/22 11:02:57;;;;;;;21.02;6.53;;;;;;;;;;4928943;28;106560;-73
2022/01/22 11:05:34;;;;;;;19.63;6.10;;;;;;;;;;4944398;28;107143;-72
2022/01/22 11:08:08;;;;;;;14.50;5.57;;;;;;;;;;4944945;28;106209;-74
2022/01/22 11:10:35;;;;;;;13.93;4.82;;;;;;;;;;4942387;28;108457;-74
2022/01/22 11:13:01;;;;;;;12.98;4.50;;;;;;;;;;4942479;28;109570;-72
2022/01/22 11:15:28;;;;;;;13.10;4.50;;;;;;;;;;4947045;28;106993;-73
2022/01/22 11:17:54;;;;;;;14.38;4.25;;;;;;;;;;4945317;28;107250;-69
2022/01/22 11:20:22;;;;;;;10.68;3.65;;;;;;;;;;4946539;28;105850;-71
2022/01/22 11:22:50;;;;;;;17.20;4.45;;;;;;;;;;4938077;28;106495;-71
2022/01/22 11:25:17;;;;;;;15.45;4.60;;;;;;;;;;4942663;28;106512;-73
2022/01/22 11:27:44;;;;;;;15.35;4.78;;;;;;;;;;4944087;28;105754;-72
2022/01/22 11:30:12;;;;;;;11.02;4.28;;;;;;;;;;4944591;28;106709;-74
2022/01/22 11:32:39;;;;;;;9.68;4.35;;;;;;;;;;4940307;28;107618;-74
2022/01/22 11:35:06;;;;;;;14.70;4.50;;;;;;;;;;4946831;28;105956;-74
2022/01/22 11:37:33;;;;;;;15.43;4.25;;;;;;;;;;4948204;28;107704;-73
2022/01/22 11:40:10;;;;;;;13.07;4.80;;;;;;;;;;4946015;28;106408;-73
2022/01/22 11:42:55;;;;;;;12.57;5.60;;;;;;;;;;4946852;28;107423;-74
2022/01/22 11:45:44;;;;;;;17.95;6.00;;;;;;;;;;4949809;28;107357;-73
2022/01/22 11:48:16;;;;;;;14.98;6.10;;;;;;;;;;4944087;28;105934;-72
2022/01/22 11:50:44;;;;;;;12.75;5.65;;;;;;;;;;4950861;28;106742;-72
2022/01/22 11:53:21;;;;;;;15.15;6.05;;;;;;;;;;4946923;28;107508;-75
2022/01/22 11:56:06;;;;;;;19.88;6.60;;;;;;;;;;4947940;28;108096;-73
2022/01/22 11:58:33;;;;;;;19.85;6.70;;;;;;;;;;4933759;28;106683;-72
2022/01/22 12:00:59;;;;;;;19.58;6.55;;;;;;;;;;4950287;28;106062;-73
2022/01/22 12:03:26;;;;;;;18.52;7.07;;;;;;;;;;4949168;28;107832;-68
2022/01/22 12:06:07;;;;;;;16.23;7.00;;;;;;;;;;4949575;28;106310;-74
2022/01/22 12:08:53;;;;;;;22.48;7.10;;;;;;;;;;4950376;28;106701;-71
2022/01/22 12:14:39;;;;;;;14.27;6.85;;;;;;;;;;4948599;28;107352;-75
2022/01/22 12:17:05;;;;;;;19.45;7.65;;;;;;;;;;4948293;28;106889;-69
2022/01/22 12:19:41;;;;;;;14.48;6.28;;;;;;;;;;4950379;28;106899;-70
2022/01/22 12:22:27;;;;;;;17.48;5.90;;;;;;;;;;4951111;28;107552;-71
2022/01/22 12:24:54;;;;;;;18.25;7.00;;;;;;;;;;4931833;28;106421;-69
2022/01/22 12:27:39;;;;;;;20.42;7.47;;;;;;;;;;4950741;28;109242;-70
2022/01/22 12:30:05;;;;;;;16.60;6.53;;;;;;;;;;4943107;28;106324;-70
2022/01/22 12:32:42;;;;;;;20.25;5.10;;;;;;;;;;4949757;28;106088;-70
2022/01/22 12:35:11;;;;;;;11.25;5.35;;;;;;;;;;4947395;28;107650;-71
2022/01/22 12:37:42;;;;;;;16.93;5.53;;;;;;;;;;4951083;28;107377;-70
2022/01/22 12:40:09;;;;;;;15.85;4.68;;;;;;;;;;4949567;28;107115;-70
2022/01/22 12:42:52;;;;;;;16.77;4.50;;;;;;;;;;4952929;28;106437;-70
2022/01/22 12:45:20;;;;;;;9.95;4.22;;;;;;;;;;4949965;28;105854;-69
2022/01/22 12:47:47;;;;;;;15.95;4.90;;;;;;;;;;4948212;28;107652;-70
2022/01/22 12:50:14;;;;;;;13.52;4.38;;;;;;;;;;4947000;28;106483;-71
2022/01/22 12:52:46;;;;;;;13.52;4.18;;;;;;;;;;4949130;28;106487;-69
2022/01/22 12:55:26;;;;;;;12.00;3.70;;;;;;;;;;4948317;28;107014;-69
2022/01/22 12:57:57;;;;;;;14.23;4.53;;;;;;;;;;4946810;28;105650;-69
2022/01/22 13:00:23;;;;;;;15.48;4.00;;;;;;;;;;4947158;28;107168;-71
2022/01/22 13:02:53;;;;;;;11.38;3.20;;;;;;;;;;4947483;28;107880;-69
2022/01/22 13:05:21;;;;;;;13.65;3.63;;;;;;;;;;4952157;28;106830;-70
2022/01/22 13:07:53;;;;;;;11.07;3.95;;;;;;;;;;4949574;28;105913;-72
2022/01/22 13:10:43;;;;;;;8.25;3.53;;;;;;;;;;4947368;28;107453;-72
2022/01/22 13:13:14;;;;;;;17.08;4.10;;;;;;;;;;4948206;28;106818;-70
2022/01/22 13:15:40;;;;;;;12.18;4.07;;;;;;;;;;4928734;28;110347;-70
2022/01/22 13:18:07;;;;;;;11.15;4.22;;;;;;;;;;4947248;28;108069;-73
2022/01/22 13:20:34;;;;;;;12.05;4.35;;;;;;;;;;4947693;28;107263;-70
2022/01/22 13:23:13;;;;;;;8.35;4.03;;;;;;;;;;4947988;28;106932;-70
2022/01/22 13:25:40;;;;;;;18.25;4.70;;;;;;;;;;4926955;28;106555;-70
2022/01/22 13:28:10;;;;;;;12.93;4.13;;;;;;;;;;4950255;28;106894;-70
2022/01/22 13:30:43;;;;;;;13.55;4.90;;;;;;;;;;4938979;28;106596;-69
2022/01/22 13:33:16;;;;;;;14.35;4.55;;;;;;;;;;4947950;28;108909;-71
2022/01/22 13:36:27;;;;;;;11.18;4.53;;;;;;;;;;4942607;28;108051;-72
2022/01/22 13:39:23;;;;;;;14.25;5.13;;;;;;;;;;4947925;28;106339;-71
2022/01/22 13:49:56;;;;;;;19.52;5.70;;;;;;;;;;4943327;28;106341;-72
2022/01/22 13:52:28;;;;;;;10.23;5.40;;;;;;;;;;4948311;28;107549;-72
2022/01/22 13:54:54;;;;;;;16.85;6.28;;;;;;;;;;4943697;28;106781;-72
2022/01/22 13:57:23;;;;;;;18.00;6.10;;;;;;;;;;4947360;28;107289;-72
2022/01/22 13:59:52;;;;;;;16.17;5.87;;;;;;;;;;4948056;28;105762;-72
2022/01/22 14:04:51;;;;;;;19.02;6.45;;;;;;;;;;4942372;28;109817;-72
2022/01/22 14:07:24;;;;;;;16.27;5.88;;;;;;;;;;4928574;28;108293;-73
2022/01/22 14:12:52;;;;;;;19.17;6.57;;;;;;;;;;5062861;27;106864;-72
2022/01/22 14:15:43;;;;;;;14.30;6.00;;;;;;;;;;5056600;27;107930;-72
2022/01/22 14:20:40;;;;;;;16.95;6.18;;;;;;;;;;5047355;27;106337;-73
2022/01/22 14:23:07;;;;;;;19.88;7.00;;;;;;;;;;5039897;27;106140;-72
2022/01/22 14:25:36;;;;;;;14.25;5.80;;;;;;;;;;5038640;27;106513;-72
2022/01/22 14:28:04;;;;;;;20.88;7.10;;;;;;;;;;5055381;27;107566;-73
2022/01/22 14:30:43;;;;;;;22.08;7.35;;;;;;;;;;5050301;27;107455;-71
2022/01/22 14:33:11;;;;;;;14.38;6.43;;;;;;;;;;5060335;27;105949;-71
2022/01/22 14:35:38;;;;;;;23.35;7.25;;;;;;;;;;5041889;27;106250;-73
2022/01/22 14:38:24;;;;;;;18.40;6.32;;;;;;;;;;5049698;27;106341;-72
2022/01/22 14:44:35;;;;;;;17.63;6.45;;;;;;;;;;5041535;27;109931;-73
2022/01/22 14:46:45;;;;;;;15.70;6.65;;;;;;;;;;5053150;27;106015;-73
2022/01/22 14:49:12;;;;;;;20.60;7.13;;;;;;;;;;5054510;27;106920;-73
2022/01/22 14:51:38;;;;;;;21.58;6.65;;;;;;;;;;5057052;27;107424;-70
2022/01/22 14:54:05;;;;;;;18.67;6.40;;;;;;;;;;5053457;27;106744;-73
2022/01/22 14:56:32;;;;;;;21.67;7.45;;;;;;;;;;5061027;27;107914;-73
2022/01/22 14:58:59;;;;;;;17.58;7.32;;;;;;;;;;5051435;27;106653;-70
2022/01/22 15:01:25;;;;;;;22.17;8.25;;;;;;;;;;5053895;27;106555;-71
2022/01/22 15:03:52;;;;;;;14.93;6.78;;;;;;;;;;5063713;27;108727;-71
2022/01/22 15:06:24;;;;;;;19.15;7.32;;;;;;;;;;5060451;27;106453;-73
2022/01/22 15:08:51;;;;;;;21.20;7.50;;;;;;;;;;5051094;27;106075;-73
2022/01/22 15:11:17;;;;;;;21.15;7.80;;;;;;;;;;5053734;27;107521;-71
2022/01/22 15:13:44;;;;;;;20.02;8.00;;;;;;;;;;5057760;27;106054;-73
2022/01/22 15:16:11;;;;;;;22.00;8.13;;;;;;;;;;5034195;27;106696;-73
2022/01/22 15:21:10;;;;;;;19.30;8.20;;;;;;;;;;5056020;27;106641;-71
2022/01/22 15:23:37;;;;;;;16.33;7.80;;;;;;;;;;5038353;27;107773;-72
2022/01/22 15:26:04;;;;;;;26.45;9.57;;;;;;;;;;5042985;27;106823;-73
2022/01/22 15:28:43;;;;;;;24.38;9.40;;;;;;;;;;5041902;27;107075;-73
2022/01/22 15:31:15;;;;;;;21.73;9.00;;;;;;;;;;5036763;27;107417;-70
2022/01/22 15:33:53;;;;;;;22.77;8.35;;;;;;;;;;5047523;27;105746;-71
2022/01/22 15:36:19;;;;;;;18.73;7.75;;;;;;;;;;5038798;27;106352;-70
2022/01/22 15:38:46;;;;;;;17.90;8.50;;;;;;;;;;5039085;27;108430;-70
2022/01/22 15:41:12;;;;;;;26.52;8.35;;;;;;;;;;5053811;27;105651;-70
2022/01/22 15:43:38;;;;;;;21.88;8.80;;;;;;;;;;5046399;27;109601;-71
2022/01/22 15:46:05;;;;;;;20.30;9.20;;;;;;;;;;5052694;27;106980;-72
2022/01/22 15:48:31;;;;;;;22.77;8.73;;;;;;;;;;5044353;27;106558;-71
2022/01/22 15:50:58;;;;;;;22.95;9.40;;;;;;;;;;5047554;27;107838;-72
2022/01/22 15:53:24;;;;;;;18.70;8.40;;;;;;;;;;5021182;27;106998;-72
2022/01/22 15:55:51;;;;;;;22.27;9.32;;;;;;;;;;5044775;27;106604;-73
2022/01/22 15:58:17;;;;;;;18.63;9.38;;;;;;;;;;5042297;27;107458;-71
2022/01/22 16:00:44;;;;;;;24.02;10.95;;;;;;;;;;5032144;27;105999;-72
2022/01/22 16:03:11;;;;;;;24.52;10.50;;;;;;;;;;5042618;27;106131;-71
2022/01/22 16:05:39;;;;;;;32.00;10.45;;;;;;;;;;5055230;27;106554;-71
2022/01/22 16:08:06;;;;;;;23.92;10.10;;;;;;;;;;5041714;27;106583;-71
2022/01/22 16:10:54;;;;;;;18.02;9.95;;;;;;;;;;5035721;27;107344;-71
2022/01/22 16:13:21;;;;;;;20.20;9.73;;;;;;;;;;5037014;27;106534;-71
2022/01/22 16:15:48;;;;;;;20.25;10.55;;;;;;;;;;5043218;27;106671;-73
2022/01/22 16:18:14;;;;;;;24.27;10.90;;;;;;;;;;5054181;27;108996;-72
2022/01/22 16:20:41;;;;;;;22.83;11.50;;;;;;;;;;5017034;27;106428;-71
2022/01/22 16:23:08;;;;;;;22.10;10.93;;;;;;;;;;5038293;27;105881;-72
2022/01/22 16:25:40;;;;;;;26.08;11.27;;;;;;;;;;5032643;27;107322;-70